Mesa, Colorado
Current Conditions -  °F | °C
As of 5:53 AM on Monday 22 Dec 2014 (Local Time) from KGJT Reporting Station
Few Clouds Few Clouds  
Wind Chill: 32°   Ceiling: Unl
Heat Index: 32°   Visibility: 8mi
Dew Point: 31°   Wind: 3mph
Humidity: 96%   Direction: 90°E
Pressure: 29.88"   Gusts: NA
Location:  39.17°N, 108.14°W
Report Text: KGJT 221253Z 09003KT 8SM FEW060 00/M01 A2988 RMK AO2 SLP124 T00001006
Loading
Personal Weather Stations






























Interactive Weather Map New forecast layout! Learn more

10-Day Weather Forecast

Advertisements
Track Severe Weather on mobile